createdAt,value
2018-12-10T00:01:01.991Z,95136.7
2018-12-10T00:02:04.435Z,95142
2018-12-10T00:03:06.598Z,95149.3
2018-12-10T00:04:08.753Z,95157.7
2018-12-10T00:05:10.907Z,95158.6
2018-12-10T00:06:13.340Z,95164.8
2018-12-10T00:07:15.749Z,95176.9
2018-12-10T00:08:17.902Z,95168.9
2018-12-10T00:09:20.047Z,95174.8
2018-12-10T00:10:22.491Z,95174.3
2018-12-10T00:11:24.914Z,95172.7
2018-12-10T00:12:27.343Z,95179.3
2018-12-10T00:13:29.773Z,95178.4
2018-12-10T00:14:31.899Z,95177.7
2018-12-10T00:15:34.063Z,95183.9
2018-12-10T00:16:36.211Z,95177.1
2018-12-10T00:17:38.635Z,95179.3
2018-12-10T00:18:40.787Z,95189.3
2018-12-10T00:19:42.961Z,95185.8
2018-12-10T00:20:45.393Z,95192.2
2018-12-10T00:21:47.821Z,95190.6
2018-12-10T00:22:50.332Z,95186.4
2018-12-10T00:23:52.749Z,95193
2018-12-10T00:24:54.925Z,95192.7
2018-12-10T00:25:55.991Z,95200.8
2018-12-10T00:26:58.422Z,95200
2018-12-10T00:28:00.854Z,95195.5
2018-12-10T00:29:03.273Z,95201.9
2018-12-10T00:30:05.771Z,95203.8
2018-12-10T00:31:08.191Z,95213.1
2018-12-10T00:32:10.617Z,95220.3
2018-12-10T00:33:12.769Z,95217.2
2018-12-10T00:34:15.220Z,95221.7
2018-12-10T00:35:17.363Z,95226.9
2018-12-10T00:36:19.518Z,95230.1
2018-12-10T00:37:21.663Z,95215.7
2018-12-10T00:38:24.103Z,95228.3
2018-12-10T00:39:26.527Z,95224.2
2018-12-10T00:40:28.948Z,95228.2
2018-12-10T00:41:31.369Z,95230.1
2018-12-10T00:42:33.810Z,95236
2018-12-10T00:43:36.234Z,95235.9
2018-12-10T00:44:38.389Z,95236.8
2018-12-10T00:45:40.826Z,95235
2018-12-10T00:46:43.237Z,95236.5
2018-12-10T00:47:45.401Z,95232.9
2018-12-10T00:48:47.831Z,95234.7
2018-12-10T00:49:50.277Z,95238.1
2018-12-10T00:50:52.701Z,95238.4
2018-12-10T00:51:55.207Z,95237.9
2018-12-10T00:52:57.371Z,95247.9
2018-12-10T00:53:59.788Z,95241.1
2018-12-10T00:55:02.211Z,95248.4
2018-12-10T00:56:04.627Z,95241.9
2018-12-10T00:57:06.781Z,95246.5
2018-12-10T00:58:08.668Z,95251.3
2018-12-10T00:59:11.091Z,95252.6
2018-12-10T01:00:13.513Z,95248.2
2018-12-10T01:01:15.657Z,95255.6
2018-12-10T01:02:17.794Z,95254.1
2018-12-10T01:03:19.947Z,95258.9
2018-12-10T01:04:22.364Z,95258.4
2018-12-10T01:05:24.597Z,95261.2
2018-12-10T01:06:26.742Z,95264
2018-12-10T01:07:29.164Z,95258.8
2018-12-10T01:08:31.590Z,95255.6
2018-12-10T01:09:33.717Z,95260.9
2018-12-10T01:10:36.143Z,95265.4
2018-12-10T01:11:38.568Z,95265.7
2018-12-10T01:12:41.004Z,95263
2018-12-10T01:13:42.934Z,95270.8
2018-12-10T01:14:45.084Z,95272.3
2018-12-10T01:15:47.503Z,95279.5
2018-12-10T01:16:49.932Z,95286.4
2018-12-10T01:17:52.368Z,95286.3
2018-12-10T01:18:54.545Z,95289.8
2018-12-10T01:19:56.967Z,95294
2018-12-10T01:20:59.402Z,95294.1
2018-12-10T01:22:01.035Z,95291.1
2018-12-10T01:23:02.914Z,95288.3
2018-12-10T01:24:05.072Z,95292.1
2018-12-10T01:25:07.668Z,95296.1
2018-12-10T01:26:10.090Z,95299.5
2018-12-10T01:27:12.532Z,95303.2
2018-12-10T01:28:14.672Z,95305.4
2018-12-10T01:29:16.827Z,95306.8
2018-12-10T01:30:18.698Z,95306.3
2018-12-10T01:31:21.122Z,95309.4
2018-12-10T01:32:23.540Z,95302.3
2018-12-10T01:33:25.989Z,95305.5
2018-12-10T01:34:28.470Z,95318
2018-12-10T01:35:30.902Z,95315
2018-12-10T01:36:33.323Z,95314.1
2018-12-10T01:37:35.483Z,95311.2
2018-12-10T01:38:37.925Z,95316.4
2018-12-10T01:39:40.350Z,95307.2
2018-12-10T01:40:42.782Z,95305.2
2018-12-10T01:41:44.920Z,95312
2018-12-10T01:42:47.343Z,95310.9
2018-12-10T01:43:49.769Z,95317.7
2018-12-10T01:44:52.197Z,95324.2
2018-12-10T01:45:54.622Z,95322.3
2018-12-10T01:46:57.042Z,95331.6
2018-12-10T01:47:58.941Z,95329.7
2018-12-10T01:49:01.087Z,95341.4
2018-12-10T01:50:03.514Z,95338.1
2018-12-10T01:51:05.931Z,95345.7
2018-12-10T01:52:08.082Z,95347.9
2018-12-10T01:53:10.511Z,95346.2
2018-12-10T01:54:12.668Z,95348.4
2018-12-10T01:55:15.069Z,95358
2018-12-10T01:56:16.949Z,95361.4
2018-12-10T01:57:19.373Z,95383
2018-12-10T01:58:21.243Z,95365.8
2018-12-10T01:59:23.670Z,95382.3
2018-12-10T02:00:26.111Z,95379.5
2018-12-10T02:01:28.538Z,95402.4
2018-12-10T02:02:30.955Z,95374.1
2018-12-10T02:03:33.133Z,95394.1
2018-12-10T02:04:35.359Z,95376.1
2018-12-10T02:05:37.523Z,95389.2
2018-12-10T02:06:39.949Z,95382.3
2018-12-10T02:07:42.097Z,95389.1
2018-12-10T02:08:44.250Z,95398.5
2018-12-10T02:09:46.396Z,95405.6
2018-12-10T02:10:48.893Z,95393.3
2018-12-10T02:11:51.059Z,95394.4
2018-12-10T02:12:53.499Z,95396.8
2018-12-10T02:13:55.380Z,95389.8
2018-12-10T02:14:57.554Z,95386.8
2018-12-10T02:15:59.442Z,95389.8
2018-12-10T02:17:01.069Z,95397
2018-12-10T02:18:02.949Z,95382.9
2018-12-10T02:19:05.119Z,95391.8
2018-12-10T02:20:07.269Z,95387.3
2018-12-10T02:21:09.698Z,95384.6
2018-12-10T02:22:12.123Z,95382.6
2018-12-10T02:23:14.555Z,95378.1
2018-12-10T02:24:16.973Z,95379.1
2018-12-10T02:25:19.135Z,95386.5
2018-12-10T02:26:21.559Z,95389.4
2018-12-10T02:27:23.991Z,95390.6
2018-12-10T02:28:26.213Z,95400.7
2018-12-10T02:29:28.102Z,95389.7
2018-12-10T02:30:30.530Z,95396.2
2018-12-10T02:31:32.966Z,95391.1
2018-12-10T02:32:35.512Z,95404.2
2018-12-10T02:33:37.943Z,95401.2
2018-12-10T02:34:40.411Z,95401.9
2018-12-10T02:35:42.966Z,95405.9
2018-12-10T02:36:45.381Z,95406.1
2018-12-10T02:37:47.811Z,95410.7
2018-12-10T02:38:50.238Z,95411.5
2018-12-10T02:39:52.373Z,95408.2
2018-12-10T02:40:54.518Z,95410.1
2018-12-10T02:41:56.763Z,95412
2018-12-10T02:42:58.908Z,95413.9
2018-12-10T02:44:01.329Z,95410.5
2018-12-10T02:45:03.749Z,95413.2
2018-12-10T02:46:05.883Z,95417.9
2018-12-10T02:47:07.463Z,95417.3
2018-12-10T02:48:09.896Z,95420
2018-12-10T02:49:12.319Z,95416.7
2018-12-10T02:50:14.744Z,95420.2
2018-12-10T02:51:16.886Z,95418.3
2018-12-10T02:52:19.444Z,95421.1
2018-12-10T02:53:21.855Z,95425.8
2018-12-10T02:54:24.352Z,95421
2018-12-10T02:55:26.247Z,95411.2
2018-12-10T02:56:28.393Z,95418.6
2018-12-10T02:57:30.830Z,95412.8
2018-12-10T02:58:32.994Z,95410.1
2018-12-10T02:59:35.146Z,95414.7
2018-12-10T03:00:37.027Z,95422.2
2018-12-10T03:01:39.448Z,95428
2018-12-10T03:02:41.340Z,95429.7
2018-12-10T03:03:43.493Z,95433.4
2018-12-10T03:04:45.921Z,95431.8
2018-12-10T03:05:48.344Z,95449
2018-12-10T03:06:50.751Z,95446.8
2018-12-10T03:07:53.165Z,95436.8
2018-12-10T03:08:55.323Z,95433.1
2018-12-10T03:09:57.572Z,95439.5
2018-12-10T03:11:00.007Z,95442.8
2018-12-10T03:12:02.431Z,95445.3
2018-12-10T03:13:04.304Z,95448.5
2018-12-10T03:14:06.460Z,95439.2
2018-12-10T03:15:08.963Z,95442.4
2018-12-10T03:16:11.391Z,95449.3
2018-12-10T03:17:13.823Z,95452.1
2018-12-10T03:18:15.973Z,95455.3
2018-12-10T03:19:18.411Z,95453.7
2018-12-10T03:20:20.322Z,95459.3
2018-12-10T03:21:22.497Z,95462.8
2018-12-10T03:22:24.655Z,95468
2018-12-10T03:23:26.817Z,95467.6
2018-12-10T03:24:29.254Z,95472.5
2018-12-10T03:25:31.756Z,95466.8
2018-12-10T03:26:34.195Z,95461.7
2018-12-10T03:27:36.625Z,95455.9
2018-12-10T03:28:38.779Z,95455.6
2018-12-10T03:29:41.212Z,95446.1
2018-12-10T03:30:43.645Z,95454.9
2018-12-10T03:31:45.588Z,95462.3
2018-12-10T03:32:47.477Z,95454.7
2018-12-10T03:33:49.883Z,95452.1
2018-12-10T03:34:52.309Z,95455.6
2018-12-10T03:35:54.731Z,95451.9
2018-12-10T03:36:56.585Z,95464.4
2018-12-10T03:37:58.733Z,95463.7
2018-12-10T03:39:00.603Z,95465.1
2018-12-10T03:40:02.757Z,95459.7
2018-12-10T03:41:05.163Z,95457.7
2018-12-10T03:42:07.590Z,95460.5
2018-12-10T03:43:10.032Z,95461.4
2018-12-10T03:44:12.449Z,95453.7
2018-12-10T03:45:14.872Z,95453
2018-12-10T03:46:17.303Z,95454.8
2018-12-10T03:47:19.733Z,95463.3
2018-12-10T03:48:22.221Z,95455
2018-12-10T03:49:24.379Z,95447.3
2018-12-10T03:50:26.794Z,95459.2
2018-12-10T03:51:28.940Z,95466.5
2018-12-10T03:52:31.370Z,95466
2018-12-10T03:53:33.516Z,95458.4
2018-12-10T03:54:35.940Z,95462
2018-12-10T03:55:38.094Z,95464.4
2018-12-10T03:56:40.510Z,95467
2018-12-10T03:57:42.663Z,95457.7
2018-12-10T03:58:45.079Z,95467.1
2018-12-10T03:59:47.543Z,95472.1
2018-12-10T04:00:49.741Z,95469.8
2018-12-10T04:01:51.911Z,95462.3
2018-12-10T04:02:54.054Z,95448.3
2018-12-10T04:03:56.510Z,95457.1
2018-12-10T04:04:58.934Z,95459.8
2018-12-10T04:06:01.093Z,95463.6
2018-12-10T04:07:03.262Z,95469.7
2018-12-10T04:08:05.453Z,95469.9
2018-12-10T04:09:07.625Z,95471.4
2018-12-10T04:10:10.045Z,95470.2
2018-12-10T04:11:12.463Z,95462.6
2018-12-10T04:12:14.884Z,95460.8
2018-12-10T04:13:17.316Z,95465.4
2018-12-10T04:14:19.750Z,95465.4
2018-12-10T04:15:22.170Z,95464.4
2018-12-10T04:16:24.685Z,95464.7
2018-12-10T04:17:27.123Z,95461.6
2018-12-10T04:18:29.560Z,95457.9
2018-12-10T04:19:31.977Z,95463.3
2018-12-10T04:20:34.401Z,95466.7
2018-12-10T04:21:36.826Z,95460.5
2018-12-10T04:22:39.254Z,95462.1
2018-12-10T04:23:41.424Z,95462.4
2018-12-10T04:24:45.699Z,95467.6
2018-12-10T04:25:48.190Z,95469.7
2018-12-10T04:26:50.614Z,95461.9
2018-12-10T04:27:53.042Z,95456.6
2018-12-10T04:28:55.212Z,95464.4
2018-12-10T04:29:57.625Z,95465.8
2018-12-10T04:30:59.760Z,95466.6
2018-12-10T04:32:02.179Z,95461.5
2018-12-10T04:33:04.331Z,95464.5
2018-12-10T04:34:06.756Z,95475.9
2018-12-10T04:35:09.177Z,95469.4
2018-12-10T04:36:11.610Z,95471.2
2018-12-10T04:37:14.034Z,95474.3
2018-12-10T04:38:16.209Z,95471.8
2018-12-10T04:39:18.854Z,95461.8
2018-12-10T04:40:21.274Z,95470.8
2018-12-10T04:41:23.409Z,95475.5
2018-12-10T04:42:25.835Z,95467.4
2018-12-10T04:43:27.999Z,95474.3
2018-12-10T04:44:30.421Z,95470.2
2018-12-10T04:45:32.012Z,95473.5
2018-12-10T04:46:34.160Z,95460
2018-12-10T04:47:36.322Z,95471.1
2018-12-10T04:48:38.478Z,95464.4
2018-12-10T04:49:40.342Z,95467.2
2018-12-10T04:50:42.764Z,95461.1
2018-12-10T04:51:45.195Z,95466.4
2018-12-10T04:52:47.629Z,95463.6
2018-12-10T04:53:49.285Z,95474.9
2018-12-10T04:54:51.138Z,95467.8
2018-12-10T04:55:53.557Z,95478.6
2018-12-10T04:56:55.712Z,95473.3
2018-12-10T04:57:57.582Z,95477.4
2018-12-10T04:58:59.188Z,95474.5
2018-12-10T05:00:01.066Z,95481.6
2018-12-10T05:01:03.502Z,95470.9
2018-12-10T05:02:05.931Z,95473.8
2018-12-10T05:03:08.363Z,95479.4
2018-12-10T05:04:10.787Z,95479.1
2018-12-10T05:05:13.304Z,95474.6
2018-12-10T05:06:15.732Z,95481
2018-12-10T05:07:17.882Z,95473.2
2018-12-10T05:08:20.312Z,95476.6
2018-12-10T05:09:22.739Z,95495.8
2018-12-10T05:10:24.887Z,95475
2018-12-10T05:11:27.315Z,95477.3
2018-12-10T05:12:29.452Z,95487.2
2018-12-10T05:13:31.878Z,95483.9
2018-12-10T05:14:34.299Z,95486.5
2018-12-10T05:15:36.726Z,95486.7
2018-12-10T05:16:38.893Z,95478.2
2018-12-10T05:17:40.776Z,95485.3
2018-12-10T05:18:43.213Z,95487.2
2018-12-10T05:19:45.637Z,95497.2
2018-12-10T05:20:47.790Z,95488.3
2018-12-10T05:21:49.943Z,95480.1
2018-12-10T05:22:52.085Z,95490.7
2018-12-10T05:23:54.503Z,95497.5
2018-12-10T05:24:56.933Z,95493.3
2018-12-10T05:25:58.818Z,95488.7
2018-12-10T05:27:02.770Z,95495.6
2018-12-10T05:28:04.901Z,95499.1
2018-12-10T05:29:07.038Z,95492.9
2018-12-10T05:30:09.476Z,95499
2018-12-10T05:31:11.900Z,95503
2018-12-10T05:32:14.123Z,95509.5
2018-12-10T05:33:16.553Z,95505.1
2018-12-10T05:34:18.989Z,95502.4
2018-12-10T05:35:21.431Z,95510.7
2018-12-10T05:36:23.318Z,95515.9
2018-12-10T05:37:25.171Z,95509
2018-12-10T05:38:27.321Z,95508.1
2018-12-10T05:39:29.441Z,95507.6
2018-12-10T05:40:31.861Z,95513.1
2018-12-10T05:41:34.293Z,95506.1
2018-12-10T05:42:36.729Z,95507.1
2018-12-10T05:43:38.881Z,95512.7
2018-12-10T05:44:41.313Z,95510.2
2018-12-10T05:45:43.197Z,95505.3
2018-12-10T05:46:45.357Z,95508.2
2018-12-10T05:47:47.768Z,95504
2018-12-10T05:48:49.921Z,95517.6
2018-12-10T05:49:52.351Z,95513.8
2018-12-10T05:50:54.787Z,95522.8
2018-12-10T05:51:57.213Z,95513.3
2018-12-10T05:52:59.099Z,95514.6
2018-12-10T05:54:01.522Z,95518.3
2018-12-10T05:55:03.683Z,95517.6
2018-12-10T05:56:05.549Z,95515.3
2018-12-10T05:57:07.779Z,95511.1
2018-12-10T05:58:10.285Z,95513.3
2018-12-10T05:59:12.163Z,95515.3
2018-12-10T06:00:14.663Z,95523.1
2018-12-10T06:01:16.901Z,95524.3
2018-12-10T06:02:18.823Z,95523.7
2018-12-10T06:03:21.603Z,95531.6
2018-12-10T06:04:24.057Z,95532.4
2018-12-10T06:05:26.576Z,95532.3
2018-12-10T06:06:29.110Z,95533.8
2018-12-10T06:07:31.275Z,95536.8
2018-12-10T06:08:33.703Z,95539.9
2018-12-10T06:09:36.235Z,95537.5
2018-12-10T06:10:38.663Z,95543.5
2018-12-10T06:11:41.089Z,95536.6
2018-12-10T06:12:43.517Z,95538.9
2018-12-10T06:13:45.662Z,95540.3
2018-12-10T06:14:48.085Z,95544.4
2018-12-10T06:15:49.943Z,95543.3
2018-12-10T06:16:52.091Z,95541.8
2018-12-10T06:17:54.246Z,95540.9
2018-12-10T06:18:56.673Z,95541.1
2018-12-10T06:19:58.333Z,95538.9
2018-12-10T06:21:00.781Z,95541.5
2018-12-10T06:22:03.203Z,95538.3
2018-12-10T06:23:05.635Z,95544.2
2018-12-10T06:24:08.061Z,95548.7
2018-12-10T06:25:09.929Z,95541.2
2018-12-10T06:26:12.114Z,95542
2018-12-10T06:27:14.551Z,95551
2018-12-10T06:28:16.983Z,95548.8
2018-12-10T06:29:19.411Z,95547.9
2018-12-10T06:30:21.557Z,95544.7
2018-12-10T06:31:23.977Z,95550.9
2018-12-10T06:32:26.399Z,95548.5
2018-12-10T06:33:28.553Z,95550.5
2018-12-10T06:34:30.973Z,95549.3
2018-12-10T06:35:33.410Z,95545.5
2018-12-10T06:36:35.560Z,95547.4
2018-12-10T06:37:39.332Z,95548.1
2018-12-10T06:38:41.757Z,95541.8
2018-12-10T06:39:43.906Z,95537.1
2018-12-10T06:40:46.329Z,95542.3
2018-12-10T06:41:48.188Z,95543.3
2018-12-10T06:42:50.611Z,95551
2018-12-10T06:43:52.779Z,95544.3
2018-12-10T06:44:55.197Z,95551.6
2018-12-10T06:45:57.652Z,95551.8
2018-12-10T06:47:00.085Z,95550.6
2018-12-10T06:48:02.237Z,95556.8
2018-12-10T06:49:04.394Z,95549
2018-12-10T06:50:06.013Z,95545.9
2018-12-10T06:51:08.173Z,95557.1
2018-12-10T06:52:10.333Z,95561
2018-12-10T06:53:12.462Z,95557.2
2018-12-10T06:54:14.622Z,95564.9
2018-12-10T06:55:16.782Z,95561.9
2018-12-10T06:56:18.927Z,95567.3
2018-12-10T06:57:21.086Z,95566.7
2018-12-10T06:58:23.512Z,95566.4
2018-12-10T06:59:25.935Z,95570.8
2018-12-10T07:00:28.359Z,95569.9
2018-12-10T07:01:30.518Z,95574.9
2018-12-10T07:02:32.692Z,95577.6
2018-12-10T07:03:34.859Z,95575.9
2018-12-10T07:04:37.364Z,95583.9
2018-12-10T07:05:39.539Z,95579
2018-12-10T07:06:41.979Z,95592.5
2018-12-10T07:07:44.139Z,95591
2018-12-10T07:08:45.849Z,95590.8
2018-12-10T07:09:48.279Z,95591.4
2018-12-10T07:10:50.803Z,95596.5
2018-12-10T07:11:53.234Z,95596.8
2018-12-10T07:12:55.466Z,95603.3
2018-12-10T07:13:57.873Z,95605
2018-12-10T07:15:00.029Z,95604.1
2018-12-10T07:16:02.179Z,95612.8
2018-12-10T07:17:04.370Z,95612.8
2018-12-10T07:18:06.516Z,95613.2
2018-12-10T07:19:08.933Z,95607.4
2018-12-10T07:20:11.357Z,95615
2018-12-10T07:21:13.496Z,95612.6
2018-12-10T07:22:16.025Z,95624.5
2018-12-10T07:23:17.881Z,95618.3
2018-12-10T07:24:20.324Z,95618.8
2018-12-10T07:25:22.753Z,95615.9
2018-12-10T07:26:24.913Z,95614.3
2018-12-10T07:27:27.339Z,95617.4
2018-12-10T07:28:29.771Z,95623.9
2018-12-10T07:29:32.193Z,95625
2018-12-10T07:31:39.602Z,95625.8
2018-12-10T07:32:41.751Z,95627.9
2018-12-10T07:33:44.171Z,95629.9
2018-12-10T07:34:46.610Z,95631.2
2018-12-10T07:35:49.039Z,95623.7
2018-12-10T07:36:51.460Z,95629.6
2018-12-10T07:37:53.898Z,95628.9
2018-12-10T07:38:56.315Z,95633.6
2018-12-10T07:39:58.485Z,95629.9
2018-12-10T07:41:00.907Z,95634.4
2018-12-10T07:42:03.341Z,95634.8
2018-12-10T07:43:05.772Z,95634.6
2018-12-10T07:44:08.202Z,95634.5
2018-12-10T07:45:10.628Z,95633.7
2018-12-10T07:46:13.048Z,95638.7
2018-12-10T07:47:15.487Z,95638.8
2018-12-10T07:48:17.919Z,95643.9
2018-12-10T07:49:20.353Z,95643.4
2018-12-10T07:50:22.785Z,95635.9
2018-12-10T07:51:24.692Z,95637.4
2018-12-10T07:52:27.121Z,95639.6
2018-12-10T07:53:29.029Z,95643.4
2018-12-10T07:54:31.463Z,95640.6
2018-12-10T07:55:33.891Z,95646.9
2018-12-10T07:56:36.323Z,95648.6
2018-12-10T07:57:38.753Z,95645.5
2018-12-10T07:58:41.188Z,95651.1
2018-12-10T07:59:43.623Z,95653.2
2018-12-10T08:00:46.052Z,95653.4
2018-12-10T08:01:48.492Z,95648.5
2018-12-10T08:02:50.361Z,95651.5
2018-12-10T08:03:52.515Z,95655.9
2018-12-10T08:04:54.668Z,95659.6
2018-12-10T08:05:57.086Z,95657.5
2018-12-10T08:06:59.517Z,95666.3
2018-12-10T08:08:01.661Z,95661.5
2018-12-10T08:09:04.094Z,95660.9
2018-12-10T08:10:06.519Z,95663.2
2018-12-10T08:11:08.689Z,95667.2
2018-12-10T08:12:10.848Z,95663.3
2018-12-10T08:13:13.281Z,95663.2
2018-12-10T08:14:15.453Z,95667.2
2018-12-10T08:15:17.889Z,95666.9
2018-12-10T08:16:20.313Z,95670.8
2018-12-10T08:17:22.466Z,95673.5
2018-12-10T08:18:24.889Z,95672.7
2018-12-10T08:19:26.760Z,95678.8
2018-12-10T08:20:29.191Z,95681.8
2018-12-10T08:21:31.627Z,95674.1
2018-12-10T08:22:34.049Z,95685.7
2018-12-10T08:23:36.210Z,95682.9
2018-12-10T08:24:38.719Z,95686.8
2018-12-10T08:25:40.848Z,95688.7
2018-12-10T08:26:43.007Z,95693.9
2018-12-10T08:27:45.147Z,95695.8
2018-12-10T08:28:47.573Z,95683.4
2018-12-10T08:29:50.003Z,95694.5
2018-12-10T08:30:52.437Z,95696.2
2018-12-10T08:31:55.252Z,95695.3
2018-12-10T08:32:57.812Z,95698.9
2018-12-10T08:33:59.976Z,95694.9
2018-12-10T08:35:02.411Z,95697.6
2018-12-10T08:36:04.277Z,95704.6
2018-12-10T08:37:06.715Z,95699.4
2018-12-10T08:38:09.155Z,95698.4
2018-12-10T08:39:11.609Z,95707.5
2018-12-10T08:40:14.134Z,95709.9
2018-12-10T08:41:16.551Z,95705.5
2018-12-10T08:42:18.983Z,95707.6
2018-12-10T08:43:21.159Z,95711.9
2018-12-10T08:44:23.598Z,95709.7
2018-12-10T08:45:26.013Z,95707
2018-12-10T08:46:27.602Z,95712
2018-12-10T08:47:29.512Z,95711.5
2018-12-10T08:48:31.981Z,95717.1
2018-12-10T08:49:34.473Z,95716.5
2018-12-10T08:50:36.908Z,95711.2
2018-12-10T08:51:39.349Z,95715
2018-12-10T08:52:41.505Z,95714.6
2018-12-10T08:53:43.939Z,95715.7
2018-12-10T08:54:46.360Z,95714.1
2018-12-10T08:55:49.020Z,95717.3
2018-12-10T08:56:51.457Z,95716.9
2018-12-10T08:57:53.892Z,95722.4
2018-12-10T08:58:56.431Z,95718.1
2018-12-10T08:59:58.871Z,95722.4
2018-12-10T09:01:00.751Z,95722.2
2018-12-10T09:02:03.183Z,95722.5
2018-12-10T09:03:05.607Z,95724.6
2018-12-10T09:04:07.761Z,95730.2
2018-12-10T09:05:10.192Z,95730.5
2018-12-10T09:06:12.360Z,95732.9
2018-12-10T09:07:14.782Z,95733.1
2018-12-10T09:08:16.936Z,95735.3
2018-12-10T09:09:19.121Z,95741.3
2018-12-10T09:10:21.559Z,95739.3
2018-12-10T09:11:23.691Z,95740.6
2018-12-10T09:12:26.112Z,95736.5
2018-12-10T09:13:28.266Z,95737.9
2018-12-10T09:14:30.693Z,95740.6
2018-12-10T09:15:33.119Z,95734.3
2018-12-10T09:16:35.574Z,95741.3
2018-12-10T09:17:37.731Z,95739.1
2018-12-10T09:18:40.171Z,95744.9
2018-12-10T09:19:42.300Z,95746.8
2018-12-10T09:20:44.443Z,95749.8
2018-12-10T09:21:47.041Z,95747.6
2018-12-10T09:22:49.486Z,95741.5
2018-12-10T09:23:51.910Z,95747.3
2018-12-10T09:24:54.360Z,95748.9
2018-12-10T09:25:56.793Z,95752.6
2018-12-10T09:26:58.672Z,95751.4
2018-12-10T09:28:01.101Z,95749.1
2018-12-10T09:29:03.527Z,95751
2018-12-10T09:30:05.952Z,95756.7
2018-12-10T09:31:08.112Z,95757.9
2018-12-10T09:32:12.370Z,95762.6
2018-12-10T09:33:14.897Z,95763.7
2018-12-10T09:34:17.060Z,95756.8
2018-12-10T09:35:19.219Z,95762.1
2018-12-10T09:36:21.662Z,95759.5
2018-12-10T09:37:24.091Z,95762.6
2018-12-10T09:38:26.231Z,95765.6
2018-12-10T09:39:30.736Z,95766
2018-12-10T09:40:32.883Z,95767.5
2018-12-10T09:41:35.055Z,95762.7
2018-12-10T09:42:37.490Z,95770.9
2018-12-10T09:43:39.915Z,95775.3
2018-12-10T09:44:42.336Z,95775.1
2018-12-10T09:45:44.765Z,95770.4
2018-12-10T09:46:47.234Z,95783.4
2018-12-10T09:47:49.132Z,95782
2018-12-10T09:48:51.658Z,95780.8
2018-12-10T09:49:54.004Z,95782
2018-12-10T09:50:56.428Z,95779.6
2018-12-10T09:51:58.858Z,95781.1
2018-12-10T09:53:01.279Z,95785.7
2018-12-10T09:54:03.703Z,95780.8
2018-12-10T09:55:05.854Z,95783.9
2018-12-10T09:56:08.277Z,95791.9
2018-12-10T09:57:10.146Z,95783.7
2018-12-10T09:58:12.323Z,95784.8
2018-12-10T09:59:14.462Z,95786.9
2018-12-10T10:00:16.635Z,95789.5
2018-12-10T10:01:18.784Z,95791.9
2018-12-10T10:02:21.212Z,95789.6
2018-12-10T10:03:23.651Z,95791.2
2018-12-10T10:04:26.090Z,95785.6
2018-12-10T10:05:27.973Z,95789.9
2018-12-10T10:06:30.428Z,95792.9
2018-12-10T10:07:32.851Z,95793.4
2018-12-10T10:08:35.269Z,95793.8
2018-12-10T10:09:37.127Z,95791.9
2018-12-10T10:10:39.549Z,95792.1
2018-12-10T10:11:41.983Z,95792.3
2018-12-10T10:12:44.405Z,95790.5
2018-12-10T10:13:47.050Z,95794.6
2018-12-10T10:14:49.482Z,95795.6
2018-12-10T10:15:51.623Z,95795.2
2018-12-10T10:16:54.051Z,95794
2018-12-10T10:17:56.513Z,95795
2018-12-10T10:19:00.937Z,95796.8
2018-12-10T10:20:03.361Z,95797.3
2018-12-10T10:21:05.239Z,95802.2
2018-12-10T10:22:12.227Z,95805.2
2018-12-10T10:23:14.665Z,95805.5
2018-12-10T10:24:16.815Z,95802.7
2018-12-10T10:25:19.248Z,95806.8
2018-12-10T10:26:21.375Z,95799.8
2018-12-10T10:27:23.808Z,95804.5
2018-12-10T10:28:25.941Z,95806
2018-12-10T10:29:28.375Z,95810.3
2018-12-10T10:30:30.550Z,95808.9
2018-12-10T10:31:33.059Z,95807.5
2018-12-10T10:32:35.492Z,95802.2
2018-12-10T10:33:37.648Z,95802.7
2018-12-10T10:34:39.805Z,95811.2
2018-12-10T10:35:42.226Z,95811.3
2018-12-10T10:36:46.117Z,95808.4
2018-12-10T10:37:48.551Z,95812.3
2018-12-10T10:38:50.975Z,95810.3
2018-12-10T10:39:53.141Z,95819.4
2018-12-10T10:40:55.705Z,95817.5
2018-12-10T10:41:58.912Z,95819.4
2018-12-10T10:43:01.423Z,95816.5
2018-12-10T10:44:03.849Z,95814.5
2018-12-10T10:45:06.281Z,95817.6
2018-12-10T10:46:08.706Z,95812.6
2018-12-10T10:47:11.138Z,95818.3
2018-12-10T10:48:13.579Z,95817.5
2018-12-10T10:49:16.005Z,95816.5
2018-12-10T10:50:18.157Z,95815.3
2018-12-10T10:51:20.585Z,95824.3
2018-12-10T10:52:22.716Z,95816.8
2018-12-10T10:53:25.142Z,95818.4
2018-12-10T10:54:27.313Z,95812.9
2018-12-10T10:55:29.799Z,95820.2
2018-12-10T10:56:32.003Z,95813.2
2018-12-10T10:57:34.150Z,95817.6
2018-12-10T10:58:36.589Z,95817.3
2018-12-10T10:59:38.465Z,95816.5
2018-12-10T11:00:40.905Z,95817.3
2018-12-10T11:01:43.055Z,95815.6
2018-12-10T11:02:47.467Z,95816.8
2018-12-10T11:03:49.616Z,95819.4
2018-12-10T11:04:51.761Z,95819.9
2018-12-10T11:05:53.909Z,95818.8
2018-12-10T11:06:56.171Z,95816.3
2018-12-10T11:07:58.151Z,95818.1
2018-12-10T11:09:00.573Z,95811.8
2018-12-10T11:10:02.998Z,95815.9
2018-12-10T11:11:05.421Z,95817.4
2018-12-10T11:12:07.844Z,95815.8
2018-12-10T11:13:10.005Z,95813
2018-12-10T11:14:12.173Z,95817.4
2018-12-10T11:15:14.308Z,95809.4
2018-12-10T11:16:16.454Z,95812
2018-12-10T11:17:18.592Z,95807.1
2018-12-10T11:18:21.015Z,95807
2018-12-10T11:19:23.441Z,95813.9
2018-12-10T11:20:25.870Z,95811.2
2018-12-10T11:21:28.023Z,95813.8
2018-12-10T11:22:30.462Z,95805.6
2018-12-10T11:23:32.898Z,95806.5
2018-12-10T11:24:35.318Z,95810.8
2018-12-10T11:25:37.750Z,95810.7
2018-12-10T11:26:40.165Z,95808.1
2018-12-10T11:27:42.589Z,95807.9
2018-12-10T11:28:44.727Z,95810
2018-12-10T11:29:47.169Z,95801.8
2018-12-10T11:30:49.583Z,95802.5
2018-12-10T11:31:51.764Z,95802.7
2018-12-10T11:32:54.197Z,95792.8
2018-12-10T11:33:56.634Z,95793.3
2018-12-10T11:34:58.785Z,95796.9
2018-12-10T11:36:00.944Z,95798.8
2018-12-10T11:37:03.361Z,95799.9
2018-12-10T11:38:05.780Z,95801.6
2018-12-10T11:39:07.930Z,95793.8
2018-12-10T11:40:09.791Z,95796.4
2018-12-10T11:41:11.926Z,95795.6
2018-12-10T11:42:14.079Z,95798.5
2018-12-10T11:43:16.510Z,95796.2
2018-12-10T11:44:18.934Z,95793.8
2018-12-10T11:45:21.371Z,95795.1
2018-12-10T11:46:23.241Z,95792.2
2018-12-10T11:47:25.672Z,95803
2018-12-10T11:48:28.096Z,95794.1
2018-12-10T11:49:30.527Z,95804.7
2018-12-10T11:50:32.959Z,95798.6
2018-12-10T11:51:35.085Z,95795.2
2018-12-10T11:52:37.510Z,95795.3
2018-12-10T11:53:39.948Z,95799.1
2018-12-10T11:54:42.370Z,95794.8
2018-12-10T11:55:44.844Z,95793.3
2018-12-10T11:56:47.004Z,95792.2
2018-12-10T11:57:49.554Z,95793.5
2018-12-10T11:58:51.994Z,95789.1
2018-12-10T11:59:54.422Z,95785.6
2018-12-10T12:00:56.858Z,95793.6
2018-12-10T12:01:59.292Z,95791.6
2018-12-10T12:03:01.711Z,95792.8
2018-12-10T12:04:04.146Z,95785.9
2018-12-10T12:05:06.590Z,95788.6
2018-12-10T12:06:08.726Z,95781.3
2018-12-10T12:07:11.154Z,95787.4
2018-12-10T12:08:13.312Z,95787.6
2018-12-10T12:09:15.824Z,95790.1
2018-12-10T12:10:17.991Z,95788.4
2018-12-10T12:11:19.862Z,95783.9
2018-12-10T12:12:22.293Z,95786.8
2018-12-10T12:13:24.720Z,95785.6
2018-12-10T12:14:26.932Z,95785.4
2018-12-10T12:15:29.367Z,95794.5
2018-12-10T12:16:31.789Z,95797.3
2018-12-10T12:17:33.953Z,95799.9
2018-12-10T12:18:36.088Z,95791.7
2018-12-10T12:19:38.505Z,95789.5
2018-12-10T12:20:40.932Z,95793.6
2018-12-10T12:21:43.358Z,95797.4
2018-12-10T12:22:45.495Z,95795
2018-12-10T12:23:48.017Z,95793.4
2018-12-10T12:24:50.440Z,95795.8
2018-12-10T12:25:52.582Z,95793
2018-12-10T12:26:55.014Z,95791.6
2018-12-10T12:27:57.435Z,95792.5
2018-12-10T12:28:59.864Z,95789.4
2018-12-10T12:30:02.288Z,95789.1
2018-12-10T12:31:04.727Z,95793.3
2018-12-10T12:32:06.881Z,95793.7
2018-12-10T12:33:09.043Z,95790
2018-12-10T12:34:11.549Z,95792.3
2018-12-10T12:35:13.981Z,95790.8
2018-12-10T12:36:16.404Z,95792
2018-12-10T12:37:18.558Z,95783.6
2018-12-10T12:38:20.723Z,95780.9
2018-12-10T12:39:23.157Z,95780.9